Time;durP1;ratioP1;P1;durP2;ratioP2;P2;SDS_P1;SDS_P2;PMS_P1;PMS_P2;Temp;Humidity;BMP_temperature;BMP_pressure;BME280_temperature;BME280_humidity;BME280_pressure;Samples;Min_cycle;Max_cycle;Signal;HPM_P1;HPM_P2
2023/03/03 00:00:49;;;;;;;23.58;11.88;;;1.20;99.90;;;;;;5018979;28;20029;-78
2023/03/03 00:03:19;;;;;;;26.13;13.65;;;1.20;99.90;;;;;;5013983;28;20041;-78
2023/03/03 00:05:45;;;;;;;22.48;11.93;;;1.20;99.90;;;;;;5028399;28;20048;-78
2023/03/03 00:08:12;;;;;;;23.92;11.55;;;1.10;99.90;;;;;;5001772;28;20492;-78
2023/03/03 00:10:38;;;;;;;21.92;12.48;;;1.10;99.90;;;;;;5011841;28;20038;-78
2023/03/03 00:13:16;;;;;;;23.90;12.32;;;1.00;99.90;;;;;;5009368;28;20112;-78
2023/03/03 00:15:42;;;;;;;26.02;11.65;;;1.00;99.90;;;;;;5014980;28;20033;-78
2023/03/03 00:18:32;;;;;;;24.42;12.05;;;1.00;99.90;;;;;;5024081;28;20036;-78
2023/03/03 00:21:00;;;;;;;24.65;12.32;;;0.90;99.90;;;;;;5019537;28;20480;-78
2023/03/03 00:23:37;;;;;;;25.92;13.05;;;0.90;99.90;;;;;;5030187;28;20398;-78
2023/03/03 00:26:17;;;;;;;26.90;12.77;;;0.80;99.90;;;;;;5021307;28;20041;-78
2023/03/03 00:28:46;;;;;;;23.58;11.23;;;0.80;99.90;;;;;;5030999;28;20049;-78
2023/03/03 00:31:18;;;;;;;25.67;12.65;;;0.70;99.90;;;;;;5028288;28;20025;-78
2023/03/03 00:33:55;;;;;;;25.42;12.00;;;0.70;99.90;;;;;;5012095;28;20092;-77
2023/03/03 00:36:30;;;;;;;25.75;12.75;;;0.70;99.90;;;;;;5002298;28;20051;-78
2023/03/03 00:39:25;;;;;;;27.80;13.60;;;0.60;99.90;;;;;;5010737;28;20043;-78
2023/03/03 00:41:51;;;;;;;31.53;14.53;;;0.70;99.90;;;;;;4995640;28;20033;-77
2023/03/03 00:44:42;;;;;;;29.73;15.07;;;0.70;99.90;;;;;;5014285;28;20401;-77
2023/03/03 00:47:17;;;;;;;31.58;15.30;;;0.70;99.90;;;;;;5015372;28;20022;-78
2023/03/03 00:49:43;;;;;;;29.95;15.10;;;0.70;99.90;;;;;;5009968;28;20561;-78
2023/03/03 00:52:16;;;;;;;33.60;14.63;;;0.70;99.90;;;;;;5011377;28;20039;-78
2023/03/03 00:54:42;;;;;;;30.75;15.50;;;0.70;99.90;;;;;;5013458;28;20037;-78
2023/03/03 00:57:08;;;;;;;32.95;16.77;;;0.70;99.90;;;;;;5008400;28;20033;-77
2023/03/03 00:59:35;;;;;;;30.25;14.93;;;0.70;99.90;;;;;;4995385;28;20033;-77
2023/03/03 01:02:01;;;;;;;26.88;13.38;;;0.60;99.90;;;;;;5015755;28;20084;-78
2023/03/03 01:04:27;;;;;;;30.92;14.10;;;0.60;99.90;;;;;;4993761;28;20536;-78
2023/03/03 01:06:53;;;;;;;29.20;14.63;;;0.50;99.90;;;;;;5012265;28;20036;-78
2023/03/03 01:09:23;;;;;;;31.92;15.50;;;0.50;99.90;;;;;;5008205;28;20050;-78
2023/03/03 01:11:51;;;;;;;35.40;17.92;;;0.60;99.90;;;;;;5011707;28;20514;-78
2023/03/03 01:14:17;;;;;;;34.58;16.40;;;0.50;99.90;;;;;;5000872;28;20025;-78
2023/03/03 01:16:43;;;;;;;32.38;15.25;;;0.50;99.90;;;;;;5012808;28;20036;-78
2023/03/03 01:19:09;;;;;;;33.10;15.10;;;0.50;99.90;;;;;;5010255;28;20420;-78
2023/03/03 01:21:35;;;;;;;32.63;16.50;;;0.50;99.90;;;;;;5013317;28;20036;-78
2023/03/03 01:24:03;;;;;;;37.33;17.75;;;0.40;99.90;;;;;;5010002;28;20633;-77
2023/03/03 01:26:32;;;;;;;43.38;18.90;;;0.40;99.90;;;;;;5006275;28;20508;-78
2023/03/03 01:29:00;;;;;;;35.38;18.23;;;0.30;99.90;;;;;;4999328;28;20421;-78
2023/03/03 01:31:26;;;;;;;38.90;17.60;;;0.30;99.90;;;;;;4995871;28;20025;-78
2023/03/03 01:33:52;;;;;;;39.80;18.17;;;0.30;99.90;;;;;;5017404;28;20083;-78
2023/03/03 01:36:26;;;;;;;43.47;20.40;;;0.20;99.90;;;;;;5010591;28;20036;-78
2023/03/03 01:38:53;;;;;;;42.08;19.50;;;0.30;99.90;;;;;;4983721;28;20034;-78
2023/03/03 01:41:19;;;;;;;44.00;19.60;;;0.30;99.90;;;;;;5003442;28;20405;-78
2023/03/03 01:43:47;;;;;;;44.95;19.83;;;0.20;99.90;;;;;;4994648;28;20474;-78
2023/03/03 01:46:27;;;;;;;41.97;18.58;;;0.20;99.90;;;;;;5013848;28;20049;-78
2023/03/03 01:49:02;;;;;;;37.55;18.50;;;0.20;99.90;;;;;;5014985;28;20117;-78
2023/03/03 01:51:51;;;;;;;46.70;19.65;;;0.10;99.90;;;;;;5011185;28;20056;-78
2023/03/03 01:54:25;;;;;;;42.67;19.80;;;0.10;99.90;;;;;;5029688;28;20033;-78
2023/03/03 01:56:55;;;;;;;48.88;20.95;;;0.10;99.90;;;;;;5023365;28;20394;-78
2023/03/03 01:59:26;;;;;;;42.10;18.98;;;0.10;99.90;;;;;;4995814;28;20037;-78
2023/03/03 02:01:52;;;;;;;44.85;19.92;;;0.10;99.90;;;;;;5002729;28;20034;-78
2023/03/03 02:04:20;;;;;;;44.83;20.02;;;0.10;99.90;;;;;;5006519;28;20034;-78
2023/03/03 02:06:54;;;;;;;49.65;21.35;;;0.10;99.90;;;;;;5021885;28;20044;-78
2023/03/03 02:09:55;;;;;;;49.60;22.23;;;0.10;99.90;;;;;;4989128;28;20033;-78
2023/03/03 02:12:31;;;;;;;47.05;21.63;;;0.10;99.90;;;;;;5012670;28;20045;-78
2023/03/03 02:14:57;;;;;;;48.15;21.10;;;0.10;99.90;;;;;;4990611;28;20030;-78
2023/03/03 02:17:23;;;;;;;49.90;21.30;;;0.10;99.90;;;;;;4999505;28;20095;-78
2023/03/03 02:20:13;;;;;;;51.60;22.90;;;0.20;99.90;;;;;;5006355;28;20038;-78
2023/03/03 02:22:50;;;;;;;49.85;21.75;;;0.20;99.90;;;;;;5029630;28;20116;-78
2023/03/03 02:25:30;;;;;;;50.60;19.55;;;0.20;99.90;;;;;;5027052;28;20029;-78
2023/03/03 02:27:56;;;;;;;41.10;19.15;;;0.20;99.90;;;;;;5014662;28;20032;-78
2023/03/03 02:30:23;;;;;;;37.88;17.38;;;0.10;99.90;;;;;;5031029;28;20033;-78
2023/03/03 02:32:49;;;;;;;37.45;17.63;;;0.10;99.90;;;;;;5002084;28;20294;-78
2023/03/03 02:35:26;;;;;;;39.78;18.90;;;0.00;99.90;;;;;;5009076;28;20057;-78
2023/03/03 02:37:54;;;;;;;46.85;21.50;;;0.00;99.90;;;;;;5010329;28;20076;-78
2023/03/03 02:40:24;;;;;;;45.72;20.00;;;-0.10;99.90;;;;;;5022194;28;20049;-78
2023/03/03 02:42:52;;;;;;;46.25;20.20;;;0.00;99.90;;;;;;5009137;28;20032;-78
2023/03/03 02:45:18;;;;;;;42.67;19.25;;;-0.10;99.90;;;;;;5030443;28;20025;-78
2023/03/03 02:47:50;;;;;;;42.05;19.15;;;-0.10;99.90;;;;;;5012856;28;20545;-78
2023/03/03 02:50:17;;;;;;;34.20;16.10;;;-0.10;99.90;;;;;;5004532;28;20472;-78
2023/03/03 02:52:43;;;;;;;35.28;15.70;;;-0.20;99.90;;;;;;5012316;28;20524;-78
2023/03/03 02:55:09;;;;;;;32.67;15.75;;;-0.20;99.90;;;;;;4995093;28;20034;-78
2023/03/03 02:57:35;;;;;;;44.35;19.58;;;-0.30;99.90;;;;;;5014994;28;20029;-78
2023/03/03 03:00:00;;;;;;;44.88;18.20;;;-0.30;99.90;;;;;;4996159;28;20040;-78
2023/03/03 03:02:28;;;;;;;40.17;18.65;;;-0.30;99.90;;;;;;5010495;28;20036;-78
2023/03/03 03:04:54;;;;;;;39.63;18.42;;;-0.30;99.90;;;;;;4996104;28;20037;-78
2023/03/03 03:07:22;;;;;;;44.00;18.63;;;-0.30;99.90;;;;;;4973871;28;20397;-78
2023/03/03 03:09:48;;;;;;;40.53;18.40;;;-0.30;99.90;;;;;;4982681;28;20137;-78
2023/03/03 03:12:15;;;;;;;47.17;19.63;;;-0.40;99.90;;;;;;4995607;28;20041;-78
2023/03/03 03:14:41;;;;;;;51.88;22.00;;;-0.40;99.90;;;;;;4995154;28;20045;-78
2023/03/03 03:17:07;;;;;;;45.85;21.23;;;-0.40;99.90;;;;;;4994183;28;20033;-78
2023/03/03 03:19:33;;;;;;;44.10;19.52;;;-0.40;99.90;;;;;;4976907;28;20041;-78
2023/03/03 03:22:01;;;;;;;47.55;21.30;;;-0.40;99.90;;;;;;4990427;28;20371;-78
2023/03/03 03:24:28;;;;;;;44.50;20.20;;;-0.50;99.90;;;;;;4987301;28;20291;-78
2023/03/03 03:26:59;;;;;;;47.22;19.50;;;-0.50;99.90;;;;;;4993537;28;20112;-78
2023/03/03 03:29:26;;;;;;;43.67;19.73;;;-0.50;99.90;;;;;;4986149;28;20029;-78
2023/03/03 03:31:52;;;;;;;46.42;20.05;;;-0.50;99.90;;;;;;4990034;28;20104;-78
2023/03/03 03:34:18;;;;;;;50.20;21.33;;;-0.50;99.90;;;;;;4999524;28;20037;-78
2023/03/03 03:36:45;;;;;;;47.10;21.60;;;-0.60;99.90;;;;;;5006739;28;20037;-78
2023/03/03 03:39:12;;;;;;;50.15;22.10;;;-0.60;99.90;;;;;;4991415;28;20036;-78
2023/03/03 03:41:41;;;;;;;47.90;20.52;;;-0.60;99.90;;;;;;5012449;28;20034;-78
2023/03/03 03:44:07;;;;;;;49.40;21.60;;;-0.70;99.90;;;;;;5017922;28;20053;-78
2023/03/03 03:46:33;;;;;;;44.33;20.90;;;-0.70;99.90;;;;;;4993625;28;20084;-78
2023/03/03 03:48:59;;;;;;;47.55;21.40;;;-0.70;99.90;;;;;;4997888;28;20034;-78
2023/03/03 03:51:25;;;;;;;47.55;19.67;;;-0.70;99.90;;;;;;5001503;28;20026;-77
2023/03/03 03:53:51;;;;;;;53.30;20.67;;;-0.70;99.90;;;;;;5012427;28;20063;-78
2023/03/03 03:56:17;;;;;;;46.22;20.33;;;-0.70;99.90;;;;;;5015709;28;20025;-78
2023/03/03 03:58:46;;;;;;;46.83;19.52;;;-0.70;99.90;;;;;;4984018;28;20036;-78
2023/03/03 04:01:13;;;;;;;48.65;19.77;;;-0.70;99.90;;;;;;5010462;28;20030;-78
2023/03/03 04:03:44;;;;;;;46.03;18.75;;;-0.70;99.90;;;;;;5009904;28;20081;-78
2023/03/03 04:06:14;;;;;;;45.78;20.85;;;-0.70;99.90;;;;;;5009183;28;20037;-78
2023/03/03 04:08:40;;;;;;;50.60;21.13;;;-0.70;99.90;;;;;;5001128;28;20033;-78
2023/03/03 04:11:07;;;;;;;48.72;20.73;;;-0.70;99.90;;;;;;4983409;28;20030;-78
2023/03/03 04:13:34;;;;;;;51.03;21.73;;;-0.80;99.90;;;;;;5028601;28;20036;-78
2023/03/03 04:16:01;;;;;;;48.88;21.50;;;-0.80;99.90;;;;;;5030169;28;20038;-78
2023/03/03 04:18:27;;;;;;;52.65;22.33;;;-0.80;99.90;;;;;;5032429;28;20029;-78
2023/03/03 04:20:53;;;;;;;45.03;21.75;;;-0.70;99.90;;;;;;5006201;28;20442;-78
2023/03/03 04:23:20;;;;;;;52.20;22.85;;;-0.70;99.90;;;;;;5011829;28;20025;-78
2023/03/03 04:25:47;;;;;;;61.88;25.05;;;-0.70;99.90;;;;;;5013914;28;20036;-78
2023/03/03 04:28:15;;;;;;;53.60;23.52;;;-0.70;99.90;;;;;;4994457;28;20049;-77
2023/03/03 04:30:42;;;;;;;52.08;21.98;;;-0.60;99.90;;;;;;4991793;28;20720;-78
2023/03/03 04:33:07;;;;;;;48.03;21.48;;;-0.70;99.90;;;;;;5014108;28;20029;-78
2023/03/03 04:35:36;;;;;;;50.65;21.63;;;-0.60;99.90;;;;;;4992457;28;20063;-78
2023/03/03 04:38:03;;;;;;;51.88;22.17;;;-0.60;99.90;;;;;;4987348;28;20045;-78
2023/03/03 04:40:30;;;;;;;50.55;22.00;;;-0.60;99.90;;;;;;4999119;28;20087;-78
2023/03/03 04:42:56;;;;;;;51.90;22.80;;;-0.70;99.90;;;;;;4990780;28;20104;-78
2023/03/03 04:45:23;;;;;;;55.05;22.25;;;-0.70;99.90;;;;;;4999062;28;20402;-78
2023/03/03 04:47:49;;;;;;;50.05;22.70;;;-0.70;99.90;;;;;;5012358;28;20037;-78
2023/03/03 04:50:15;;;;;;;46.60;21.40;;;-0.70;99.90;;;;;;4981205;28;20057;-77
2023/03/03 04:52:41;;;;;;;52.78;22.38;;;-0.70;99.90;;;;;;5012652;28;20065;-78
2023/03/03 04:55:08;;;;;;;50.75;21.95;;;-0.70;99.90;;;;;;4978715;28;20053;-78
2023/03/03 04:57:35;;;;;;;47.72;20.30;;;-0.70;99.90;;;;;;5006072;28;20441;-78
2023/03/03 05:00:02;;;;;;;52.35;23.05;;;-0.70;99.90;;;;;;4998941;28;20026;-78
2023/03/03 05:02:29;;;;;;;58.17;23.88;;;-0.80;99.90;;;;;;5001775;28;20512;-77
2023/03/03 05:04:55;;;;;;;52.58;22.08;;;-0.80;99.90;;;;;;4994237;28;20026;-78
2023/03/03 05:07:21;;;;;;;54.17;22.17;;;-0.80;99.90;;;;;;4988018;28;20037;-78
2023/03/03 05:09:46;;;;;;;49.53;22.50;;;-0.80;99.90;;;;;;4980080;28;20042;-78
2023/03/03 05:12:12;;;;;;;49.80;22.38;;;-0.80;99.90;;;;;;5023255;28;20037;-77
2023/03/03 05:14:38;;;;;;;47.13;20.42;;;-0.80;99.90;;;;;;5027364;28;20095;-78
2023/03/03 05:17:04;;;;;;;50.85;20.85;;;-0.80;99.90;;;;;;5024878;28;20555;-77
2023/03/03 05:19:30;;;;;;;44.65;19.77;;;-0.90;99.90;;;;;;5025663;28;20036;-78
2023/03/03 05:21:56;;;;;;;50.25;21.65;;;-0.90;99.90;;;;;;5022403;28;20030;-77
2023/03/03 05:24:22;;;;;;;46.35;19.02;;;-0.90;99.90;;;;;;5005028;28;20470;-77
2023/03/03 05:26:50;;;;;;;47.90;20.38;;;-0.90;99.90;;;;;;5027621;28;20041;-77
2023/03/03 05:29:16;;;;;;;45.42;20.08;;;-0.90;99.90;;;;;;4987695;28;20049;-77
2023/03/03 05:31:42;;;;;;;46.17;20.38;;;-0.90;99.90;;;;;;5023711;28;20490;-78
2023/03/03 05:34:08;;;;;;;52.15;22.45;;;-1.00;99.90;;;;;;5028543;28;20026;-77
2023/03/03 05:36:34;;;;;;;46.17;20.35;;;-1.00;99.90;;;;;;4981598;28;20120;-77
2023/03/03 05:38:59;;;;;;;52.55;22.08;;;-1.00;99.90;;;;;;4983860;28;20108;-77
2023/03/03 05:41:25;;;;;;;48.60;20.67;;;-1.00;99.90;;;;;;5004041;28;20044;-76
2023/03/03 05:43:51;;;;;;;48.10;19.85;;;-1.00;99.90;;;;;;5027543;28;20022;-77
2023/03/03 05:46:17;;;;;;;50.97;21.60;;;-1.00;99.90;;;;;;5017610;28;20041;-77
2023/03/03 05:48:43;;;;;;;56.38;22.70;;;-1.00;99.90;;;;;;5008809;28;20034;-78
2023/03/03 05:51:08;;;;;;;50.75;22.77;;;-1.00;99.90;;;;;;4982490;28;20037;-77
2023/03/03 05:53:34;;;;;;;49.25;21.40;;;-0.90;99.90;;;;;;5004888;28;20045;-76
2023/03/03 05:56:00;;;;;;;47.30;19.80;;;-0.90;99.90;;;;;;5028450;28;20029;-77
2023/03/03 05:58:26;;;;;;;51.97;21.58;;;-0.80;99.90;;;;;;4997836;28;20033;-77
2023/03/03 06:00:51;;;;;;;47.40;21.60;;;-0.90;99.90;;;;;;5028195;28;20111;-77
2023/03/03 06:03:17;;;;;;;48.25;21.35;;;-0.80;99.90;;;;;;5013520;28;20029;-76
2023/03/03 06:05:43;;;;;;;42.42;20.38;;;-0.80;99.90;;;;;;5008981;28;20092;-76
2023/03/03 06:08:09;;;;;;;49.72;20.33;;;-0.70;99.90;;;;;;5028434;28;20033;-77
2023/03/03 06:10:35;;;;;;;46.58;20.23;;;-0.70;99.90;;;;;;5000266;28;20450;-77
2023/03/03 06:13:04;;;;;;;46.60;19.83;;;-0.70;99.90;;;;;;5003901;28;20030;-76
2023/03/03 06:15:30;;;;;;;48.83;21.10;;;-0.70;99.90;;;;;;4996418;28;20026;-76
2023/03/03 06:17:55;;;;;;;46.10;19.80;;;-0.60;99.90;;;;;;5004949;28;20041;-76
2023/03/03 06:20:21;;;;;;;46.75;21.27;;;-0.60;99.90;;;;;;5025294;28;20091;-78
2023/03/03 06:22:47;;;;;;;49.35;21.15;;;-0.50;99.90;;;;;;5024354;28;20028;-76
2023/03/03 06:25:13;;;;;;;51.13;21.77;;;-0.50;99.90;;;;;;5005164;28;20797;-77
2023/03/03 06:27:39;;;;;;;44.67;19.83;;;-0.40;99.90;;;;;;5019889;28;20038;-77
2023/03/03 06:30:05;;;;;;;43.90;21.25;;;-0.40;99.90;;;;;;5024557;28;20034;-76
2023/03/03 06:32:31;;;;;;;48.72;20.50;;;-0.30;99.90;;;;;;4991557;28;20033;-77
2023/03/03 06:34:57;;;;;;;45.88;20.90;;;-0.30;99.90;;;;;;5013240;28;20033;-76
2023/03/03 06:37:22;;;;;;;47.33;21.75;;;-0.20;99.90;;;;;;5002993;28;20473;-76
2023/03/03 06:39:50;;;;;;;43.85;20.23;;;-0.20;99.90;;;;;;5009814;28;20041;-77
2023/03/03 06:42:17;;;;;;;50.17;23.02;;;-0.10;99.90;;;;;;5026166;28;20025;-77
2023/03/03 06:44:43;;;;;;;42.08;19.65;;;-0.10;99.90;;;;;;5008132;28;20022;-76
2023/03/03 06:47:09;;;;;;;48.95;21.90;;;0.00;99.90;;;;;;5005353;28;20030;-77
2023/03/03 06:49:35;;;;;;;39.38;18.73;;;0.00;99.90;;;;;;4991983;28;20553;-77
2023/03/03 06:52:10;;;;;;;49.28;22.40;;;0.10;99.90;;;;;;5010080;28;20040;-77
2023/03/03 06:54:36;;;;;;;42.55;20.27;;;0.20;99.90;;;;;;5023365;28;20065;-77
2023/03/03 06:57:16;;;;;;;43.72;20.00;;;0.20;99.90;;;;;;5023335;28;20515;-76
2023/03/03 06:59:42;;;;;;;42.10;20.80;;;0.20;99.90;;;;;;5021862;28;20042;-77
2023/03/03 07:02:15;;;;;;;48.45;20.00;;;0.30;99.90;;;;;;5011581;28;20044;-76
2023/03/03 07:04:41;;;;;;;43.25;19.20;;;0.40;99.90;;;;;;5032454;28;20038;-76
2023/03/03 07:07:21;;;;;;;45.75;21.20;;;0.40;99.90;;;;;;4983657;28;20033;-77
2023/03/03 07:09:53;;;;;;;43.35;20.17;;;0.60;99.90;;;;;;5029980;28;20367;-77
2023/03/03 07:12:25;;;;;;;43.60;20.08;;;0.70;99.90;;;;;;5028118;28;20033;-77
2023/03/03 07:15:00;;;;;;;42.15;19.75;;;0.90;99.90;;;;;;5030577;28;20477;-78
2023/03/03 07:17:26;;;;;;;40.85;18.95;;;0.90;99.90;;;;;;5024928;28;20032;-78
2023/03/03 07:19:52;;;;;;;39.60;19.63;;;1.00;99.90;;;;;;4993327;28;20030;-77
2023/03/03 07:22:21;;;;;;;40.70;19.02;;;1.00;99.90;;;;;;5028122;28;20235;-77
2023/03/03 07:24:50;;;;;;;40.15;18.95;;;1.00;99.90;;;;;;5030549;28;20474;-78
2023/03/03 07:27:23;;;;;;;39.05;19.45;;;1.00;99.90;;;;;;5010419;28;20026;-77
2023/03/03 07:29:52;;;;;;;39.90;18.63;;;1.00;99.90;;;;;;5033251;28;20136;-76
2023/03/03 07:32:38;;;;;;;37.42;19.08;;;1.00;99.90;;;;;;5012008;28;20091;-77
2023/03/03 07:35:39;;;;;;;34.75;17.95;;;1.00;99.90;;;;;;5029017;28;20510;-78
2023/03/03 07:38:38;;;;;;;35.53;18.13;;;1.00;99.90;;;;;;5032075;28;20053;-77
2023/03/03 07:41:11;;;;;;;38.17;17.67;;;1.00;99.90;;;;;;5013727;28;20038;-77
2023/03/03 07:43:42;;;;;;;34.15;16.98;;;1.00;99.90;;;;;;4981308;28;20038;-77
2023/03/03 07:46:13;;;;;;;35.42;17.92;;;1.10;99.90;;;;;;5014896;28;20034;-77
2023/03/03 07:48:41;;;;;;;35.85;17.95;;;1.10;99.90;;;;;;5018962;28;20029;-77
2023/03/03 07:51:26;;;;;;;31.70;17.33;;;1.20;99.90;;;;;;5023603;28;20026;-77
2023/03/03 07:54:19;;;;;;;38.95;18.40;;;1.40;99.90;;;;;;5032738;28;20025;-77
2023/03/03 07:56:46;;;;;;;36.33;17.27;;;1.60;99.90;;;;;;4975727;28;20100;-77
2023/03/03 07:59:20;;;;;;;35.70;17.17;;;1.80;99.90;;;;;;5038108;28;20044;-78
2023/03/03 08:01:48;;;;;;;34.38;17.23;;;1.90;99.90;;;;;;5029382;28;20126;-77
2023/03/03 08:04:42;;;;;;;33.47;17.15;;;2.00;99.90;;;;;;5011079;28;20045;-78
2023/03/03 08:07:16;;;;;;;35.47;17.00;;;2.00;99.90;;;;;;5015063;28;20048;-79
2023/03/03 08:09:43;;;;;;;34.58;16.10;;;2.20;99.90;;;;;;5018448;28;20021;-78
2023/03/03 08:12:38;;;;;;;30.80;15.90;;;2.30;99.90;;;;;;5037389;28;20087;-79
2023/03/03 08:15:30;;;;;;;30.50;15.80;;;2.40;99.90;;;;;;5010881;28;20057;-77
2023/03/03 08:18:00;;;;;;;35.15;16.45;;;2.40;99.90;;;;;;5019716;28;20026;-77
2023/03/03 08:20:38;;;;;;;35.30;16.55;;;2.40;99.90;;;;;;5006429;28;20063;-78
2023/03/03 08:23:04;;;;;;;35.08;16.92;;;2.40;99.90;;;;;;4994105;28;20037;-77
2023/03/03 08:25:29;;;;;;;31.85;15.48;;;2.50;99.90;;;;;;4993462;28;20048;-77
2023/03/03 08:27:55;;;;;;;30.38;15.05;;;2.50;99.90;;;;;;4995107;28;20026;-78
2023/03/03 08:30:21;;;;;;;30.17;15.68;;;2.60;99.90;;;;;;5005503;28;20034;-78
2023/03/03 08:32:47;;;;;;;33.03;15.85;;;2.60;99.90;;;;;;5007445;28;20030;-77
2023/03/03 08:35:12;;;;;;;30.98;15.65;;;2.70;99.90;;;;;;5000704;28;20034;-77
2023/03/03 08:37:38;;;;;;;33.20;15.63;;;2.80;99.90;;;;;;4994409;28;20041;-77
2023/03/03 08:40:05;;;;;;;31.13;15.25;;;2.90;99.90;;;;;;5011558;28;20080;-78
2023/03/03 08:42:30;;;;;;;31.02;14.98;;;2.90;99.90;;;;;;5001783;28;20480;-79
2023/03/03 08:44:56;;;;;;;33.55;15.82;;;2.90;99.90;;;;;;5013968;28;20030;-78
2023/03/03 08:47:22;;;;;;;26.48;14.48;;;2.90;99.90;;;;;;5014675;28;20029;-77
2023/03/03 08:49:47;;;;;;;28.23;14.35;;;2.90;99.90;;;;;;5006178;28;20676;-78
2023/03/03 08:52:13;;;;;;;26.73;14.30;;;2.90;99.90;;;;;;5027166;28;20120;-78
2023/03/03 08:54:40;;;;;;;29.60;14.93;;;3.00;99.90;;;;;;4997452;28;20067;-77
2023/03/03 08:57:06;;;;;;;28.58;14.50;;;3.10;99.90;;;;;;4996159;28;20030;-78
2023/03/03 08:59:36;;;;;;;27.55;14.32;;;3.20;99.90;;;;;;5001102;28;20040;-78
2023/03/03 09:02:02;;;;;;;27.55;13.38;;;3.30;99.90;;;;;;5023112;28;20029;-78
2023/03/03 09:04:28;;;;;;;31.08;14.40;;;3.30;99.90;;;;;;5026770;28;20504;-78
2023/03/03 09:06:54;;;;;;;29.05;14.70;;;3.40;99.90;;;;;;4987121;28;20033;-77
2023/03/03 09:09:19;;;;;;;30.88;14.40;;;3.40;99.90;;;;;;4999112;28;20026;-78
2023/03/03 09:11:46;;;;;;;30.55;14.82;;;3.50;99.90;;;;;;4994289;28;20041;-77
2023/03/03 09:14:17;;;;;;;25.92;13.30;;;3.50;99.90;;;;;;5025076;28;20026;-77
2023/03/03 09:16:50;;;;;;;26.90;13.55;;;3.50;99.90;;;;;;5011434;28;20025;-77
2023/03/03 09:19:31;;;;;;;28.27;14.45;;;3.50;99.90;;;;;;4984167;28;20034;-77
2023/03/03 09:22:20;;;;;;;29.90;13.60;;;3.50;99.90;;;;;;5020336;28;20083;-77
2023/03/03 09:24:48;;;;;;;28.58;13.63;;;3.60;99.90;;;;;;5028261;28;20470;-77
2023/03/03 09:27:36;;;;;;;25.05;12.45;;;3.60;99.90;;;;;;5023923;28;20152;-77
2023/03/03 09:30:28;;;;;;;26.50;13.10;;;3.60;99.90;;;;;;5006730;28;20028;-77
2023/03/03 09:32:55;;;;;;;25.88;12.52;;;3.60;99.90;;;;;;5020288;28;20025;-77
2023/03/03 09:35:41;;;;;;;24.40;12.73;;;3.70;99.90;;;;;;5034328;28;20401;-77
2023/03/03 09:38:30;;;;;;;22.90;11.77;;;3.80;99.90;;;;;;5007279;28;20033;-77
2023/03/03 09:41:11;;;;;;;27.52;13.20;;;3.90;99.90;;;;;;5005303;28;20563;-77
2023/03/03 09:43:50;;;;;;;27.52;12.63;;;3.90;99.90;;;;;;5022182;28;20533;-77
2023/03/03 09:46:40;;;;;;;24.40;11.82;;;3.90;99.90;;;;;;5012229;28;20045;-77
2023/03/03 09:49:30;;;;;;;25.38;12.30;;;3.90;99.90;;;;;;5008655;28;20044;-77
2023/03/03 09:52:22;;;;;;;30.48;12.95;;;3.90;99.90;;;;;;5002572;28;20037;-75
2023/03/03 09:54:56;;;;;;;26.00;12.27;;;3.90;99.90;;;;;;5011885;28;20050;-75
2023/03/03 09:57:28;;;;;;;24.37;12.43;;;3.80;99.90;;;;;;5016601;28;20116;-76
2023/03/03 10:00:12;;;;;;;24.25;12.43;;;3.90;99.90;;;;;;5018860;28;21066;-76
2023/03/03 10:02:47;;;;;;;26.83;12.57;;;3.90;99.90;;;;;;5002568;28;20041;-75
2023/03/03 10:05:45;;;;;;;24.52;12.07;;;4.00;99.90;;;;;;5014071;28;20025;-76
2023/03/03 10:08:26;;;;;;;26.15;12.73;;;4.00;99.90;;;;;;5015355;28;20713;-77
2023/03/03 10:11:12;;;;;;;24.77;11.82;;;4.00;99.90;;;;;;4996643;28;20104;-77
2023/03/03 10:14:02;;;;;;;27.23;12.45;;;4.00;99.90;;;;;;5013006;28;20040;-77
2023/03/03 10:17:02;;;;;;;23.88;12.00;;;4.00;99.90;;;;;;5018169;28;20032;-77
2023/03/03 10:19:51;;;;;;;21.55;11.50;;;4.00;99.90;;;;;;5000037;28;20029;-77
2023/03/03 10:22:23;;;;;;;23.67;11.18;;;3.90;99.90;;;;;;5015566;28;20478;-77
2023/03/03 10:25:01;;;;;;;23.50;11.35;;;4.00;99.90;;;;;;5015324;28;20120;-77
2023/03/03 10:27:45;;;;;;;22.65;11.57;;;4.10;99.90;;;;;;5004131;28;20029;-77
2023/03/03 10:30:39;;;;;;;23.33;11.45;;;4.10;99.90;;;;;;5015768;28;20018;-77
2023/03/03 10:33:32;;;;;;;19.88;10.70;;;4.30;99.90;;;;;;5000749;28;20029;-77
2023/03/03 10:36:12;;;;;;;23.55;10.77;;;4.30;99.90;;;;;;5003225;28;20087;-77
2023/03/03 10:39:22;;;;;;;21.75;10.80;;;4.30;99.90;;;;;;5009209;28;20056;-77
2023/03/03 10:42:09;;;;;;;23.20;10.50;;;4.40;99.90;;;;;;4977594;28;20533;-77
2023/03/03 10:44:45;;;;;;;24.45;11.60;;;4.40;99.90;;;;;;5003078;28;20033;-77
2023/03/03 10:47:10;;;;;;;;;;;4.40;99.90;;;;;;4990231;28;20140;-77
2023/03/03 10:50:07;;;;;;;20.08;10.50;;;4.40;99.90;;;;;;5022771;28;19916;-77
2023/03/03 10:52:56;;;;;;;17.13;9.27;;;4.50;99.90;;;;;;5020680;28;20033;-77
2023/03/03 10:56:09;;;;;;;22.48;10.52;;;4.60;99.90;;;;;;5028049;28;20038;-77
2023/03/03 10:58:59;;;;;;;18.17;10.57;;;4.60;99.90;;;;;;5009068;28;20375;-77
2023/03/03 11:01:47;;;;;;;20.70;10.57;;;4.60;99.90;;;;;;5013140;28;20489;-77
2023/03/03 11:04:36;;;;;;;20.02;10.35;;;4.60;99.90;;;;;;5014221;28;20474;-77
2023/03/03 11:07:21;;;;;;;20.08;10.40;;;4.60;99.90;;;;;;4998995;28;20038;-78
2023/03/03 11:10:18;;;;;;;20.15;10.52;;;4.50;99.90;;;;;;5022650;28;20034;-78
2023/03/03 11:12:57;;;;;;;18.50;9.48;;;4.50;99.90;;;;;;5028045;28;20163;-77
2023/03/03 11:15:33;;;;;;;19.75;9.23;;;4.50;99.90;;;;;;5028573;28;20044;-77
2023/03/03 11:18:02;;;;;;;19.13;9.88;;;4.50;99.90;;;;;;5030509;28;20549;-77
2023/03/03 11:20:52;;;;;;;21.95;10.05;;;4.60;99.90;;;;;;5013230;28;20409;-77
2023/03/03 11:23:25;;;;;;;20.35;10.00;;;4.60;99.90;;;;;;4994065;28;20227;-77
2023/03/03 11:26:20;;;;;;;18.75;9.45;;;4.60;99.90;;;;;;5022184;28;20039;-77
2023/03/03 11:29:02;;;;;;;17.60;9.57;;;4.60;99.90;;;;;;5010705;28;20117;-77
2023/03/03 11:31:54;;;;;;;19.33;10.75;;;4.70;99.90;;;;;;5023410;28;20033;-77
2023/03/03 11:34:51;;;;;;;18.13;10.13;;;4.80;99.90;;;;;;5028942;28;20084;-77
2023/03/03 11:37:26;;;;;;;19.20;9.85;;;4.90;99.90;;;;;;5009971;28;20061;-77
2023/03/03 11:39:54;;;;;;;;;;;5.00;99.90;;;;;;5030690;28;20049;-77
2023/03/03 11:42:45;;;;;;;15.43;8.48;;;5.10;99.90;;;;;;5026846;28;19928;-77
2023/03/03 11:45:18;;;;;;;17.48;9.07;;;5.10;99.90;;;;;;5012959;28;20032;-78
2023/03/03 11:47:57;;;;;;;16.17;8.50;;;5.20;99.90;;;;;;5012148;28;20117;-77
2023/03/03 11:50:31;;;;;;;16.20;7.93;;;5.20;99.90;;;;;;5028634;28;20022;-77
2023/03/03 11:53:15;;;;;;;15.15;8.15;;;5.20;99.90;;;;;;5021647;28;20014;-77
2023/03/03 11:55:48;;;;;;;17.85;8.10;;;5.30;99.90;;;;;;5028487;28;20037;-77
2023/03/03 11:58:33;;;;;;;14.82;8.70;;;5.30;99.90;;;;;;5007529;28;20085;-77
2023/03/03 12:01:40;;;;;;;17.10;8.47;;;5.30;99.90;;;;;;4987197;28;20026;-78
2023/03/03 12:04:23;;;;;;;18.27;8.90;;;5.30;99.90;;;;;;5009598;28;20075;-77
2023/03/03 12:07:10;;;;;;;16.02;7.80;;;5.30;99.90;;;;;;5019625;28;20072;-77
2023/03/03 12:10:02;;;;;;;17.40;8.90;;;5.30;99.90;;;;;;5025565;28;20120;-77
2023/03/03 12:12:41;;;;;;;15.18;8.15;;;5.40;99.90;;;;;;4992178;28;20371;-76
2023/03/03 12:15:18;;;;;;;18.42;7.93;;;5.40;99.90;;;;;;5030928;28;20409;-77
2023/03/03 12:18:20;;;;;;;12.82;6.88;;;5.50;99.90;;;;;;5026220;28;20125;-77
2023/03/03 12:20:57;;;;;;;17.05;7.07;;;5.50;99.90;;;;;;5017505;28;20033;-77
2023/03/03 12:23:51;;;;;;;16.85;9.10;;;5.60;99.90;;;;;;5011573;28;20025;-77
2023/03/03 12:26:32;;;;;;;14.52;7.82;;;5.70;99.90;;;;;;4987443;28;20052;-77
2023/03/03 12:29:10;;;;;;;13.98;7.53;;;5.80;99.90;;;;;;5008861;28;20095;-77
2023/03/03 12:31:48;;;;;;;16.05;7.50;;;5.90;99.90;;;;;;5025085;28;20037;-77
2023/03/03 12:34:31;;;;;;;15.82;7.63;;;6.00;99.90;;;;;;5024589;28;20033;-77
2023/03/03 12:37:09;;;;;;;17.25;8.13;;;6.30;99.90;;;;;;5014784;28;20494;-78
2023/03/03 12:40:06;;;;;;;12.75;7.15;;;6.40;99.90;;;;;;4991500;28;20116;-77
2023/03/03 12:42:59;;;;;;;14.60;6.97;;;6.50;99.90;;;;;;5024099;28;20552;-78
2023/03/03 12:45:39;;;;;;;12.30;6.35;;;6.60;99.90;;;;;;5025912;28;20048;-77
2023/03/03 12:48:16;;;;;;;13.50;7.22;;;6.70;99.90;;;;;;5008349;28;20033;-77
2023/03/03 12:50:45;;;;;;;13.50;6.55;;;6.80;99.90;;;;;;5000688;28;20033;-77
2023/03/03 12:53:18;;;;;;;11.50;6.72;;;6.80;99.90;;;;;;5023632;28;20034;-78
2023/03/03 12:55:54;;;;;;;12.05;6.60;;;6.80;99.90;;;;;;5005508;28;20033;-77
2023/03/03 12:58:26;;;;;;;;;;;6.90;99.90;;;;;;5017964;28;20025;-77
2023/03/03 13:01:21;;;;;;;12.52;6.45;;;7.00;99.90;;;;;;5024103;28;20423;-78
2023/03/03 13:04:12;;;;;;;15.30;7.30;;;7.00;99.90;;;;;;5015809;28;20029;-77
2023/03/03 13:06:42;;;;;;;13.88;6.97;;;7.00;99.90;;;;;;5009773;28;20120;-77